createdAt,value
2019-03-24T00:00:12.756Z,36.95
2019-03-24T00:02:42.131Z,39.83
2019-03-24T00:05:11.420Z,44.03
2019-03-24T00:07:40.723Z,36.30
2019-03-24T00:10:10.404Z,47.17
2019-03-24T00:12:39.711Z,42.83
2019-03-24T00:15:09.557Z,38.25
2019-03-24T00:17:38.858Z,49.00
2019-03-24T00:20:10.260Z,38.63
2019-03-24T00:22:40.088Z,45.38
2019-03-24T00:25:09.627Z,45.08
2019-03-24T00:27:38.935Z,39.63
2019-03-24T00:30:10.063Z,39.88
2019-03-24T00:32:39.366Z,42.13
2019-03-24T00:35:08.795Z,41.42
2019-03-24T00:37:38.099Z,35.03
2019-03-24T00:40:08.143Z,35.38
2019-03-24T00:42:37.458Z,33.45
2019-03-24T00:45:08.559Z,38.20
2019-03-24T00:47:37.856Z,38.67
2019-03-24T00:50:07.699Z,38.53
2019-03-24T00:52:37.059Z,34.15
2019-03-24T00:55:07.751Z,33.30
2019-03-24T00:57:37.723Z,37.48
2019-03-24T01:00:08.960Z,41.25
2019-03-24T01:02:38.531Z,45.60
2019-03-24T01:05:08.355Z,35.98
2019-03-24T01:07:37.795Z,35.15
2019-03-24T01:10:07.919Z,32.08
2019-03-24T01:12:37.217Z,37.15
2019-03-24T01:15:08.520Z,35.20
2019-03-24T01:17:38.563Z,36.20
2019-03-24T01:20:08.591Z,36.08
2019-03-24T01:22:37.891Z,34.13
2019-03-24T01:25:07.315Z,36.68
2019-03-24T01:27:36.617Z,29.63
2019-03-24T01:30:07.527Z,37.03
2019-03-24T01:32:36.833Z,42.78
2019-03-24T01:35:07.687Z,39.15
2019-03-24T01:37:36.992Z,39.83
2019-03-24T01:40:07.352Z,39.27
2019-03-24T01:42:36.961Z,44.80
2019-03-24T01:45:09.327Z,41.50
2019-03-24T01:47:39.039Z,37.73
2019-03-24T01:50:09.068Z,39.40
2019-03-24T01:52:38.368Z,40.90
2019-03-24T01:55:08.275Z,40.15
2019-03-24T01:57:37.577Z,47.00
2019-03-24T02:00:09.872Z,40.25
2019-03-24T02:02:39.221Z,38.38
2019-03-24T02:05:10.072Z,39.63
2019-03-24T02:07:39.370Z,40.23
2019-03-24T02:10:09.351Z,51.05
2019-03-24T02:12:38.642Z,47.05
2019-03-24T02:15:10.187Z,43.75
2019-03-24T02:17:39.491Z,37.75
2019-03-24T02:20:09.514Z,42.25
2019-03-24T02:22:38.817Z,45.00
2019-03-24T02:25:08.571Z,42.85
2019-03-24T02:27:37.870Z,40.03
2019-03-24T02:30:08.747Z,43.48
2019-03-24T02:32:38.027Z,45.48
2019-03-24T02:35:07.504Z,47.67
2019-03-24T02:37:37.140Z,43.78
2019-03-24T02:40:08.668Z,43.33
2019-03-24T02:42:39.626Z,42.73
2019-03-24T02:45:09.249Z,41.42
2019-03-24T02:47:38.573Z,41.63
2019-03-24T02:50:08.488Z,43.70
2019-03-24T02:52:37.807Z,46.58
2019-03-24T02:55:08.307Z,48.33
2019-03-24T02:57:37.603Z,46.18
2019-03-24T03:00:10.634Z,50.33
2019-03-24T03:02:39.933Z,45.40
2019-03-24T03:05:09.547Z,44.03
2019-03-24T03:07:39.331Z,50.67
2019-03-24T03:10:08.875Z,49.63
2019-03-24T03:12:38.166Z,48.38
2019-03-24T03:15:09.105Z,48.70
2019-03-24T03:17:38.403Z,46.25
2019-03-24T03:20:08.554Z,45.15
2019-03-24T03:22:37.847Z,43.70
2019-03-24T03:25:07.969Z,52.13
2019-03-24T03:27:37.273Z,43.78
2019-03-24T03:30:07.922Z,51.30
2019-03-24T03:32:37.202Z,51.65
2019-03-24T03:35:08.025Z,56.35
2019-03-24T03:37:37.338Z,53.98
2019-03-24T03:40:08.497Z,49.73
2019-03-24T03:42:39.700Z,55.45
2019-03-24T03:45:10.660Z,54.55
2019-03-24T03:47:40.391Z,59.38
2019-03-24T03:50:10.038Z,50.17
2019-03-24T03:52:39.310Z,60.65
2019-03-24T03:55:08.622Z,56.45
2019-03-24T03:57:37.910Z,64.25
2019-03-24T04:00:09.475Z,59.25
2019-03-24T04:02:38.782Z,53.52
2019-03-24T04:05:08.676Z,62.85
2019-03-24T04:07:38.293Z,65.70
2019-03-24T04:10:08.011Z,60.88
2019-03-24T04:12:37.299Z,69.20
2019-03-24T04:15:07.643Z,63.00
2019-03-24T04:17:36.932Z,64.42
2019-03-24T04:20:06.624Z,63.23
2019-03-24T04:22:35.935Z,64.30
2019-03-24T04:25:06.631Z,69.55
2019-03-24T04:27:35.901Z,64.77
2019-03-24T04:30:07.456Z,67.10
2019-03-24T04:32:36.726Z,69.95
2019-03-24T04:35:07.773Z,68.62
2019-03-24T04:37:37.070Z,66.92
2019-03-24T04:40:07.089Z,64.27
2019-03-24T04:42:36.393Z,64.32
2019-03-24T04:45:07.125Z,66.05
2019-03-24T04:47:36.418Z,62.98
2019-03-24T04:50:07.659Z,72.32
2019-03-24T04:52:36.970Z,66.25
2019-03-24T04:55:07.095Z,68.80
2019-03-24T04:57:36.403Z,72.15
2019-03-24T05:00:09.511Z,63.55
2019-03-24T05:02:39.075Z,71.28
2019-03-24T05:05:09.410Z,69.62
2019-03-24T05:07:40.122Z,67.75
2019-03-24T05:10:12.490Z,65.28
2019-03-24T05:12:41.791Z,61.75
2019-03-24T05:15:11.315Z,61.20
2019-03-24T05:17:40.615Z,64.87
2019-03-24T05:20:09.898Z,68.75
2019-03-24T05:22:39.190Z,61.55
2019-03-24T05:25:08.558Z,66.67
2019-03-24T05:27:37.866Z,67.62
2019-03-24T05:30:07.225Z,67.05
2019-03-24T05:32:36.521Z,69.03
2019-03-24T05:35:07.354Z,59.00
2019-03-24T05:37:36.643Z,58.50
2019-03-24T05:40:06.297Z,59.42
2019-03-24T05:42:35.575Z,59.88
2019-03-24T05:45:06.719Z,56.75
2019-03-24T05:47:37.326Z,58.40
2019-03-24T05:50:07.804Z,56.63
2019-03-24T05:52:37.110Z,52.95
2019-03-24T05:55:07.029Z,58.10
2019-03-24T05:57:36.340Z,53.08
2019-03-24T06:00:09.960Z,54.55
2019-03-24T06:02:39.263Z,49.30
2019-03-24T06:05:08.734Z,60.95
2019-03-24T06:07:38.303Z,51.73
2019-03-24T06:10:08.648Z,47.03
2019-03-24T06:12:37.930Z,52.25
2019-03-24T06:15:08.779Z,51.20
2019-03-24T06:17:47.418Z,45.90
2019-03-24T06:20:09.230Z,55.23
2019-03-24T06:22:38.517Z,54.83
2019-03-24T06:25:08.055Z,54.15
2019-03-24T06:27:37.359Z,47.90
2019-03-24T06:30:08.094Z,50.85
2019-03-24T06:32:37.370Z,47.95
2019-03-24T06:35:07.592Z,46.73
2019-03-24T06:37:36.958Z,46.50
2019-03-24T06:40:06.574Z,45.52
2019-03-24T06:42:35.874Z,42.55
2019-03-24T06:45:07.399Z,51.83
2019-03-24T06:47:36.698Z,49.48
2019-03-24T06:50:07.883Z,43.65
2019-03-24T06:52:37.174Z,44.00
2019-03-24T06:55:06.590Z,46.08
2019-03-24T06:57:35.890Z,44.77
2019-03-24T07:00:09.378Z,46.00
2019-03-24T07:02:39.408Z,44.23
2019-03-24T07:05:09.255Z,45.73
2019-03-24T07:07:38.554Z,43.33
2019-03-24T07:10:08.875Z,41.88
2019-03-24T07:12:38.260Z,39.75
2019-03-24T07:15:08.084Z,39.85
2019-03-24T07:17:37.771Z,43.30
2019-03-24T07:20:07.594Z,44.53
2019-03-24T07:22:36.874Z,42.83
2019-03-24T07:25:06.807Z,41.20
2019-03-24T07:27:36.095Z,43.78
2019-03-24T07:30:07.543Z,40.25
2019-03-24T07:32:36.833Z,40.80
2019-03-24T07:35:07.366Z,39.48
2019-03-24T07:37:36.893Z,42.23
2019-03-24T07:40:08.359Z,37.08
2019-03-24T07:42:37.951Z,41.45
2019-03-24T07:45:08.499Z,39.60
2019-03-24T07:47:37.802Z,39.35
2019-03-24T07:50:09.043Z,36.48
2019-03-24T07:52:38.573Z,40.10
2019-03-24T07:55:08.542Z,41.25
2019-03-24T07:57:38.068Z,43.63
2019-03-24T08:00:09.645Z,40.75
2019-03-24T08:02:40.473Z,43.30
2019-03-24T08:05:09.843Z,43.35
2019-03-24T08:07:39.130Z,45.52
2019-03-24T08:10:08.672Z,39.95
2019-03-24T08:12:38.016Z,44.05
2019-03-24T08:15:07.574Z,41.75
2019-03-24T08:17:36.884Z,43.00
2019-03-24T08:20:07.314Z,46.88
2019-03-24T08:22:36.623Z,40.33
2019-03-24T08:25:07.522Z,45.98
2019-03-24T08:27:36.822Z,41.92
2019-03-24T08:30:07.138Z,43.92
2019-03-24T08:32:36.455Z,43.42
2019-03-24T08:35:07.088Z,47.23
2019-03-24T08:37:36.463Z,42.73
2019-03-24T08:40:08.964Z,41.73
2019-03-24T08:42:38.270Z,37.70
2019-03-24T08:45:10.944Z,40.23
2019-03-24T08:47:40.247Z,44.63
2019-03-24T08:50:09.851Z,40.85
2019-03-24T08:52:39.171Z,38.70
2019-03-24T08:55:08.546Z,40.67
2019-03-24T08:57:37.831Z,43.55
2019-03-24T09:00:07.275Z,38.98
2019-03-24T09:02:36.578Z,40.17
2019-03-24T09:05:06.639Z,41.30
2019-03-24T09:07:35.953Z,37.23
2019-03-24T09:10:07.174Z,41.42
2019-03-24T09:12:36.482Z,40.80
2019-03-24T09:15:06.422Z,43.17
2019-03-24T09:17:35.718Z,41.53
2019-03-24T09:20:06.067Z,39.65
2019-03-24T09:22:35.375Z,40.00
2019-03-24T09:25:06.803Z,44.95
2019-03-24T09:27:36.107Z,40.85
2019-03-24T09:30:08.207Z,43.95
2019-03-24T09:32:37.519Z,39.88
2019-03-24T09:35:06.944Z,46.45
2019-03-24T09:37:36.259Z,43.10
2019-03-24T09:40:07.083Z,46.02
2019-03-24T09:42:36.387Z,47.93
2019-03-24T09:45:06.135Z,42.50
2019-03-24T09:47:35.443Z,39.98
2019-03-24T09:50:06.111Z,41.00
2019-03-24T09:52:35.474Z,40.60
2019-03-24T09:55:06.514Z,41.68
2019-03-24T09:57:35.831Z,41.13
2019-03-24T10:00:05.558Z,47.05
2019-03-24T10:02:34.868Z,41.77
2019-03-24T10:05:05.590Z,41.18
2019-03-24T10:07:34.895Z,43.52
2019-03-24T10:10:06.430Z,40.03
2019-03-24T10:12:35.741Z,42.25
2019-03-24T10:15:08.105Z,36.30
2019-03-24T10:17:37.463Z,40.88
2019-03-24T10:20:07.411Z,43.80
2019-03-24T10:22:36.703Z,40.65
2019-03-24T10:25:07.344Z,38.70
2019-03-24T10:27:36.630Z,44.40
2019-03-24T10:30:08.187Z,39.67
2019-03-24T10:32:37.483Z,41.35
2019-03-24T10:35:07.333Z,39.20
2019-03-24T10:37:36.919Z,40.45
2019-03-24T10:40:07.263Z,35.98
2019-03-24T10:42:36.995Z,43.28
2019-03-24T10:45:08.844Z,38.30
2019-03-24T10:47:38.626Z,34.08
2019-03-24T10:50:09.575Z,33.48
2019-03-24T10:52:38.882Z,37.78
2019-03-24T10:55:11.998Z,37.17
2019-03-24T10:57:41.526Z,39.92
2019-03-24T11:00:13.171Z,40.63
2019-03-24T11:02:43.092Z,35.03
2019-03-24T11:05:12.698Z,35.13
2019-03-24T11:07:42.468Z,35.45
2019-03-24T11:10:11.928Z,32.08
2019-03-24T11:12:41.234Z,34.73
2019-03-24T11:15:10.972Z,35.92
2019-03-24T11:17:40.291Z,33.40
2019-03-24T11:20:10.024Z,35.78
2019-03-24T11:22:39.468Z,34.05
2019-03-24T11:25:10.140Z,36.30
2019-03-24T11:27:39.422Z,31.35
2019-03-24T11:30:11.654Z,36.73
2019-03-24T11:32:41.676Z,38.25
2019-03-24T11:35:11.915Z,34.45
2019-03-24T11:37:41.215Z,33.28
2019-03-24T11:40:11.659Z,35.23
2019-03-24T11:42:40.947Z,37.63
2019-03-24T11:45:11.518Z,34.75
2019-03-24T11:47:40.802Z,35.38
2019-03-24T11:50:11.039Z,32.10
2019-03-24T11:52:40.350Z,31.82
2019-03-24T11:55:10.394Z,34.75
2019-03-24T11:57:39.699Z,34.33
2019-03-24T12:00:13.880Z,34.18
2019-03-24T12:02:43.195Z,34.23
2019-03-24T12:05:12.623Z,38.13
2019-03-24T12:07:42.123Z,36.42
2019-03-24T12:10:12.567Z,32.70
2019-03-24T12:12:41.899Z,35.88
2019-03-24T12:15:11.276Z,33.92
2019-03-24T12:17:40.571Z,33.90
2019-03-24T12:20:10.107Z,31.40
2019-03-24T12:22:39.470Z,32.80
2019-03-24T12:25:08.911Z,33.95
2019-03-24T12:27:38.207Z,37.33
2019-03-24T12:30:08.958Z,39.33
2019-03-24T12:32:38.247Z,41.58
2019-03-24T12:35:08.272Z,38.63
2019-03-24T12:37:37.691Z,38.42
2019-03-24T12:40:08.696Z,37.75
2019-03-24T12:42:38.886Z,35.35
2019-03-24T12:45:09.859Z,35.92
2019-03-24T12:47:39.151Z,36.60
2019-03-24T12:50:10.125Z,40.65
2019-03-24T12:52:39.921Z,29.98
2019-03-24T12:55:10.084Z,35.48
2019-03-24T12:57:39.386Z,31.35
2019-03-24T13:00:11.082Z,29.23
2019-03-24T13:02:40.379Z,29.10
2019-03-24T13:05:10.210Z,26.17
2019-03-24T13:07:39.515Z,30.27
2019-03-24T13:10:10.543Z,25.92
2019-03-24T13:12:39.843Z,29.23
2019-03-24T13:15:09.672Z,32.38
2019-03-24T13:17:39.174Z,33.02
2019-03-24T13:20:20.058Z,32.17
2019-03-24T13:22:40.312Z,31.42
2019-03-24T13:25:09.743Z,31.27
2019-03-24T13:27:39.395Z,34.67
2019-03-24T13:30:09.253Z,32.20
2019-03-24T13:32:38.863Z,34.05
2019-03-24T13:35:08.476Z,27.07
2019-03-24T13:37:38.003Z,29.35
2019-03-24T13:40:07.676Z,29.72
2019-03-24T13:42:36.983Z,31.27
2019-03-24T13:45:06.952Z,30.20
2019-03-24T13:47:36.256Z,36.38
2019-03-24T13:50:06.482Z,31.12
2019-03-24T13:52:35.858Z,30.75
2019-03-24T13:55:06.667Z,27.58
2019-03-24T13:57:35.988Z,31.73
2019-03-24T14:00:06.974Z,32.48
2019-03-24T14:02:36.291Z,29.57
2019-03-24T14:05:05.578Z,30.72
2019-03-24T14:07:35.422Z,28.12
2019-03-24T14:10:06.766Z,27.48
2019-03-24T14:12:36.383Z,31.95
2019-03-24T14:15:07.348Z,30.27
2019-03-24T14:17:36.850Z,27.17
2019-03-24T14:20:07.593Z,29.30
2019-03-24T14:22:37.038Z,30.02
2019-03-24T14:25:07.521Z,27.35
2019-03-24T14:27:36.826Z,28.05
2019-03-24T14:30:08.279Z,28.65
2019-03-24T14:32:37.855Z,29.95
2019-03-24T14:35:07.920Z,27.48
2019-03-24T14:37:37.238Z,25.88
2019-03-24T14:40:08.211Z,30.60
2019-03-24T14:42:37.862Z,27.45
2019-03-24T14:45:08.144Z,27.10
2019-03-24T14:47:37.603Z,31.23
2019-03-24T14:50:08.264Z,25.60
2019-03-24T14:52:37.630Z,26.55
2019-03-24T14:55:06.994Z,28.90
2019-03-24T14:57:36.294Z,24.02
2019-03-24T15:00:07.543Z,25.95
2019-03-24T15:02:36.830Z,25.43
2019-03-24T15:05:07.483Z,29.85
2019-03-24T15:07:36.770Z,26.87
2019-03-24T15:10:07.415Z,20.57
2019-03-24T15:12:36.712Z,25.75
2019-03-24T15:15:07.955Z,25.35
2019-03-24T15:17:37.251Z,26.25
2019-03-24T15:20:07.496Z,23.92
2019-03-24T15:22:36.819Z,24.20
2019-03-24T15:25:06.649Z,23.12
2019-03-24T15:27:35.951Z,25.08
2019-03-24T15:30:07.271Z,24.57
2019-03-24T15:32:36.587Z,19.45
2019-03-24T15:35:06.819Z,19.92
2019-03-24T15:37:36.131Z,24.47
2019-03-24T15:40:06.274Z,22.87
2019-03-24T15:42:35.586Z,23.05
2019-03-24T15:45:08.231Z,26.97
2019-03-24T15:47:37.519Z,20.32
2019-03-24T15:50:07.990Z,21.48
2019-03-24T15:52:37.467Z,18.55
2019-03-24T15:55:07.815Z,17.85
2019-03-24T15:57:37.127Z,17.70
2019-03-24T16:00:07.891Z,20.70
2019-03-24T16:02:37.199Z,19.48
2019-03-24T16:05:06.764Z,15.30
2019-03-24T16:07:36.067Z,20.12
2019-03-24T16:10:07.100Z,19.05
2019-03-24T16:12:36.635Z,20.23
2019-03-24T16:15:09.227Z,16.20
2019-03-24T16:17:38.514Z,18.42
2019-03-24T16:20:08.359Z,14.53
2019-03-24T16:22:37.650Z,15.32
2019-03-24T16:25:07.600Z,14.90
2019-03-24T16:27:36.891Z,16.00
2019-03-24T16:30:10.159Z,16.73
2019-03-24T16:32:39.458Z,13.68
2019-03-24T16:35:08.982Z,13.30
2019-03-24T16:37:38.308Z,14.33
2019-03-24T16:40:08.542Z,13.88
2019-03-24T16:42:38.152Z,13.95
2019-03-24T16:45:07.568Z,14.38
2019-03-24T16:47:36.863Z,14.85
2019-03-24T16:50:07.312Z,14.15
2019-03-24T16:52:36.635Z,15.93
2019-03-24T16:55:09.187Z,13.95
2019-03-24T16:57:38.495Z,15.05
2019-03-24T17:00:08.535Z,13.83
2019-03-24T17:02:37.838Z,14.90
2019-03-24T17:05:08.773Z,19.55
2019-03-24T17:07:38.060Z,14.38
2019-03-24T17:10:07.732Z,14.23
2019-03-24T17:12:37.030Z,11.95
2019-03-24T17:15:08.067Z,12.25
2019-03-24T17:17:37.426Z,13.35
2019-03-24T17:20:07.567Z,12.88
2019-03-24T17:22:37.134Z,13.98
2019-03-24T17:25:07.009Z,17.95
2019-03-24T17:27:36.294Z,12.65
2019-03-24T17:30:08.670Z,10.90
2019-03-24T17:32:38.296Z,11.55
2019-03-24T17:35:08.138Z,16.02
2019-03-24T17:37:37.434Z,15.00
2019-03-24T17:40:08.656Z,13.35
2019-03-24T17:42:37.950Z,16.87
2019-03-24T17:45:09.654Z,12.85
2019-03-24T17:47:39.219Z,15.83
2019-03-24T17:50:12.021Z,13.93
2019-03-24T17:52:41.054Z,12.15
2019-03-24T17:55:12.084Z,14.73
2019-03-24T17:57:41.389Z,13.90
2019-03-24T18:00:14.696Z,13.00
2019-03-24T18:02:44.226Z,16.15
2019-03-24T18:05:13.755Z,18.77
2019-03-24T18:07:43.139Z,21.10
2019-03-24T18:10:12.658Z,15.70
2019-03-24T18:12:41.963Z,16.65
2019-03-24T18:15:11.694Z,13.83
2019-03-24T18:17:40.999Z,16.73
2019-03-24T18:20:11.030Z,18.67
2019-03-24T18:22:40.339Z,15.98
2019-03-24T18:25:09.927Z,17.62
2019-03-24T18:27:39.226Z,17.32
2019-03-24T18:30:10.864Z,17.25
2019-03-24T18:32:40.154Z,17.90
2019-03-24T18:35:10.103Z,22.42
2019-03-24T18:37:39.397Z,25.12
2019-03-24T18:40:09.746Z,20.80
2019-03-24T18:42:39.038Z,18.55
2019-03-24T18:45:12.354Z,16.07
2019-03-24T18:47:41.671Z,17.50
2019-03-24T18:50:11.899Z,16.07
2019-03-24T18:52:41.519Z,16.10
2019-03-24T18:55:11.178Z,20.20
2019-03-24T18:57:40.486Z,19.57
2019-03-24T19:00:12.287Z,15.70
2019-03-24T19:02:41.603Z,14.15
2019-03-24T19:05:11.168Z,13.83
2019-03-24T19:07:40.466Z,12.33
2019-03-24T19:10:11.927Z,17.32
2019-03-24T19:12:41.231Z,15.08
2019-03-24T19:15:15.755Z,14.60
2019-03-24T19:17:45.073Z,12.68
2019-03-24T19:20:15.099Z,13.35
2019-03-24T19:22:44.402Z,12.93
2019-03-24T19:25:13.755Z,11.35
2019-03-24T19:27:43.066Z,16.27
2019-03-24T19:30:15.286Z,11.75
2019-03-24T19:32:44.594Z,11.40
2019-03-24T19:35:14.483Z,12.58
2019-03-24T19:37:53.583Z,9.86
2019-03-24T19:40:30.666Z,7.28
2019-03-24T19:42:59.972Z,10.35
2019-03-24T19:45:29.255Z,11.10
2019-03-24T19:47:58.801Z,13.83
2019-03-24T19:50:28.083Z,12.50
2019-03-24T19:52:57.709Z,11.68
2019-03-24T19:55:26.995Z,8.90
2019-03-24T19:57:56.334Z,6.97
2019-03-24T20:00:25.719Z,14.13
2019-03-24T20:02:54.994Z,10.58
2019-03-24T20:05:26.790Z,12.20
2019-03-24T20:07:55.391Z,8.45
2019-03-24T20:10:24.733Z,7.17
2019-03-24T20:12:54.053Z,8.98
2019-03-24T20:15:23.347Z,6.67
2019-03-24T20:17:52.654Z,9.58
2019-03-24T20:20:21.955Z,11.18
2019-03-24T20:22:56.295Z,8.98
2019-03-24T20:25:22.322Z,8.55
2019-03-24T20:27:51.595Z,8.50
2019-03-24T20:30:20.964Z,9.18
2019-03-24T20:32:50.459Z,7.87
2019-03-24T20:35:19.998Z,9.93
2019-03-24T20:37:49.327Z,7.37
2019-03-24T20:40:18.860Z,13.80
2019-03-24T20:42:48.132Z,6.25
2019-03-24T20:45:17.935Z,5.55
2019-03-24T20:47:47.318Z,6.78
2019-03-24T20:50:17.259Z,7.33
2019-03-24T20:52:46.550Z,8.28
2019-03-24T20:55:15.926Z,4.87
2019-03-24T20:57:45.227Z,5.67
2019-03-24T21:00:14.844Z,7.40
2019-03-24T21:02:44.119Z,5.22
2019-03-24T21:05:13.392Z,5.08
2019-03-24T21:07:43.012Z,9.23
2019-03-24T21:10:12.363Z,7.87
2019-03-24T21:12:41.636Z,7.72
2019-03-24T21:15:11.648Z,3.47
2019-03-24T21:17:41.039Z,5.10
2019-03-24T21:20:10.868Z,9.35
2019-03-24T21:22:40.140Z,7.12
2019-03-24T21:25:09.673Z,8.13
2019-03-24T21:27:38.952Z,4.78
2019-03-24T21:30:09.288Z,8.25
2019-03-24T21:32:38.850Z,5.40
2019-03-24T21:35:08.271Z,8.40
2019-03-24T21:37:37.553Z,5.05
2019-03-24T21:40:07.467Z,5.58
2019-03-24T21:42:37.076Z,6.45
2019-03-24T21:45:07.799Z,9.45
2019-03-24T21:47:37.075Z,5.67
2019-03-24T21:50:07.203Z,7.70
2019-03-24T21:52:36.478Z,9.33
2019-03-24T21:55:06.502Z,6.95
2019-03-24T21:57:35.776Z,7.17
2019-03-24T22:00:09.711Z,3.45
2019-03-24T22:02:39.058Z,9.75
2019-03-24T22:05:08.497Z,9.68
2019-03-24T22:07:37.787Z,5.87
2019-03-24T22:10:07.235Z,6.70
2019-03-24T22:12:36.535Z,7.50
2019-03-24T22:15:09.315Z,9.28
2019-03-24T22:17:38.662Z,6.83
2019-03-24T22:20:08.023Z,6.40
2019-03-24T22:22:37.563Z,3.70
2019-03-24T22:25:07.766Z,5.33
2019-03-24T22:27:37.391Z,8.65
2019-03-24T22:30:07.999Z,8.88
2019-03-24T22:32:37.287Z,7.90
2019-03-24T22:35:07.559Z,6.50
2019-03-24T22:37:36.848Z,8.13
2019-03-24T22:40:07.973Z,11.10
2019-03-24T22:42:37.280Z,9.25
2019-03-24T22:45:06.866Z,5.80
2019-03-24T22:47:36.164Z,12.43
2019-03-24T22:50:07.892Z,5.70
2019-03-24T22:52:37.768Z,7.30
2019-03-24T22:55:08.927Z,5.28
2019-03-24T22:57:38.432Z,4.97
2019-03-24T23:00:14.575Z,8.55
2019-03-24T23:02:44.391Z,6.03
2019-03-24T23:05:13.755Z,4.35
2019-03-24T23:07:43.031Z,4.78
2019-03-24T23:10:12.395Z,12.63
2019-03-24T23:12:41.668Z,5.47
2019-03-24T23:15:10.938Z,7.17
2019-03-24T23:17:40.302Z,9.50
2019-03-24T23:20:09.654Z,6.37
2019-03-24T23:22:38.927Z,7.80
2019-03-24T23:25:08.615Z,4.28
2019-03-24T23:27:37.898Z,5.35
2019-03-24T23:30:08.642Z,3.85
2019-03-24T23:32:37.916Z,5.12
2019-03-24T23:35:07.548Z,5.55
2019-03-24T23:37:36.827Z,7.70
2019-03-24T23:40:09.498Z,6.45
2019-03-24T23:42:38.795Z,6.20
2019-03-24T23:45:09.031Z,8.53
2019-03-24T23:47:38.373Z,5.70
2019-03-24T23:50:08.173Z,6.03
2019-03-24T23:52:37.458Z,7.50
2019-03-24T23:55:07.299Z,6.28
2019-03-24T23:57:36.574Z,8.93
